createdAt,value
2022-12-23T00:01:05.031Z,6.88
2022-12-23T00:03:32.664Z,6.91
2022-12-23T00:06:00.244Z,6.94
2022-12-23T00:08:27.697Z,6.90
2022-12-23T00:10:56.659Z,6.87
2022-12-23T00:13:41.922Z,6.98
2022-12-23T00:16:14.164Z,6.96
2022-12-23T00:18:41.528Z,6.80
2022-12-23T00:21:13.843Z,6.88
2022-12-23T00:23:43.011Z,6.88
2022-12-23T00:26:24.431Z,6.86
2022-12-23T00:28:51.599Z,6.85
2022-12-23T00:31:19.341Z,6.93
2022-12-23T00:33:48.557Z,6.93
2022-12-23T00:36:21.100Z,6.90
2022-12-23T00:39:06.623Z,6.90
2022-12-23T00:41:51.936Z,6.89
2022-12-23T00:44:18.539Z,6.94
2022-12-23T00:46:44.990Z,6.93
2022-12-23T00:49:34.993Z,6.90
2022-12-23T00:52:02.016Z,6.91
2022-12-23T00:54:29.090Z,6.92
2022-12-23T00:56:55.538Z,6.95
2022-12-23T00:59:21.886Z,6.88
2022-12-23T01:02:06.848Z,6.88
2022-12-23T01:04:52.441Z,6.80
2022-12-23T01:07:19.085Z,6.91
2022-12-23T01:09:45.532Z,6.72
2022-12-23T01:12:11.966Z,6.89
2022-12-23T01:14:38.966Z,6.95
2022-12-23T01:17:07.475Z,6.87
2022-12-23T01:19:34.392Z,6.80
2022-12-23T01:22:00.763Z,6.92
2022-12-23T01:24:29.230Z,6.91
2022-12-23T01:26:55.637Z,6.88
2022-12-23T01:29:22.030Z,6.88
2022-12-23T01:31:48.482Z,6.85
2022-12-23T01:34:14.944Z,6.90
2022-12-23T01:36:41.432Z,6.89
2022-12-23T01:39:07.799Z,6.87
2022-12-23T01:41:53.151Z,6.86
2022-12-23T01:44:57.123Z,6.87
2022-12-23T01:47:29.164Z,6.92
2022-12-23T01:50:06.123Z,6.87
2022-12-23T01:52:34.484Z,6.90
2022-12-23T01:55:01.043Z,6.88
2022-12-23T01:57:27.977Z,6.90
2022-12-23T02:00:12.981Z,6.88
2022-12-23T02:03:00.632Z,6.89
2022-12-23T02:05:27.216Z,6.83
2022-12-23T02:08:13.081Z,6.71
2022-12-23T02:11:01.360Z,6.91
2022-12-23T02:14:10.239Z,6.77
2022-12-23T02:16:46.524Z,6.74
2022-12-23T02:19:51.896Z,6.83
2022-12-23T02:22:26.977Z,6.82
2022-12-23T02:25:29.078Z,6.83
2022-12-23T02:28:23.191Z,6.88
2022-12-23T02:31:01.159Z,6.95
2022-12-23T02:34:00.506Z,6.93
2022-12-23T02:36:40.841Z,6.87
2022-12-23T02:39:20.582Z,6.86
2022-12-23T02:41:57.186Z,6.83
2022-12-23T02:44:29.552Z,6.85
2022-12-23T02:47:04.218Z,6.83
2022-12-23T02:49:34.775Z,6.71
2022-12-23T02:52:05.596Z,6.86
2022-12-23T02:54:38.362Z,6.87
2022-12-23T02:57:07.543Z,6.89
2022-12-23T02:59:39.881Z,6.83
2022-12-23T03:02:06.406Z,6.72
2022-12-23T03:04:32.947Z,6.85
2022-12-23T03:07:05.885Z,6.76
2022-12-23T03:09:58.613Z,6.88
2022-12-23T03:12:52.595Z,6.85
2022-12-23T03:15:38.516Z,6.87
2022-12-23T03:18:05.004Z,6.85
2022-12-23T03:21:06.092Z,6.89
2022-12-23T03:23:38.610Z,6.85
2022-12-23T03:26:16.325Z,6.83
2022-12-23T03:28:52.030Z,6.83
2022-12-23T03:31:25.132Z,6.80
2022-12-23T03:33:58.117Z,6.78
2022-12-23T03:36:29.107Z,6.83
2022-12-23T03:38:57.177Z,6.83
2022-12-23T03:41:30.603Z,6.83
2022-12-23T03:44:08.985Z,6.80
2022-12-23T03:46:45.684Z,6.84
2022-12-23T03:49:17.419Z,6.71
2022-12-23T03:51:59.178Z,6.74
2022-12-23T03:54:36.935Z,6.82
2022-12-23T03:57:05.489Z,6.81
2022-12-23T03:59:38.366Z,6.68
2022-12-23T04:02:21.085Z,6.71
2022-12-23T04:05:06.237Z,6.76
2022-12-23T04:07:45.026Z,6.74
2022-12-23T04:10:13.315Z,6.72
2022-12-23T04:12:40.296Z,6.65
2022-12-23T04:15:12.566Z,6.71
2022-12-23T04:17:39.421Z,6.76
2022-12-23T04:20:07.013Z,6.77
2022-12-23T04:22:33.375Z,6.75
2022-12-23T04:24:59.725Z,6.72
2022-12-23T04:27:26.105Z,6.75
2022-12-23T04:29:52.813Z,6.66
2022-12-23T04:32:19.171Z,6.71
2022-12-23T04:34:45.562Z,6.74
2022-12-23T04:37:11.928Z,6.72
2022-12-23T04:39:38.272Z,6.78
2022-12-23T04:42:04.707Z,6.75
2022-12-23T04:44:31.069Z,6.74
2022-12-23T04:46:57.664Z,6.74
2022-12-23T04:49:24.184Z,6.71
2022-12-23T04:51:50.546Z,6.69
2022-12-23T04:54:16.918Z,6.65
2022-12-23T04:56:43.300Z,6.65
2022-12-23T04:59:10.348Z,6.57
2022-12-23T05:01:36.886Z,6.58
2022-12-23T05:04:03.381Z,6.50
2022-12-23T05:06:29.745Z,6.57
2022-12-23T05:08:56.186Z,6.51
2022-12-23T05:11:23.052Z,6.50
2022-12-23T05:13:49.448Z,6.57
2022-12-23T05:16:15.867Z,6.53
2022-12-23T05:18:42.355Z,6.49
2022-12-23T05:21:09.519Z,6.49
2022-12-23T05:23:36.067Z,6.36
2022-12-23T05:26:02.510Z,6.42
2022-12-23T05:28:29.426Z,6.56
2022-12-23T05:31:05.469Z,6.45
2022-12-23T05:33:32.524Z,6.44
2022-12-23T05:35:59.447Z,6.42
2022-12-23T05:38:26.226Z,6.43
2022-12-23T05:40:52.762Z,6.35
2022-12-23T05:43:19.283Z,6.26
2022-12-23T05:45:46.703Z,6.26
2022-12-23T05:48:13.443Z,6.24
2022-12-23T05:50:40.091Z,6.18
2022-12-23T05:53:07.104Z,6.11
2022-12-23T05:55:34.236Z,6.14
2022-12-23T05:58:00.774Z,6.14
2022-12-23T06:00:27.708Z,6.02
2022-12-23T06:02:54.601Z,6.19
2022-12-23T06:05:21.713Z,6.26
2022-12-23T06:07:48.142Z,6.28
2022-12-23T06:10:14.515Z,6.35
2022-12-23T06:12:40.873Z,6.30
2022-12-23T06:15:08.407Z,6.33
2022-12-23T06:17:34.824Z,6.36
2022-12-23T06:20:01.300Z,6.33
2022-12-23T06:22:27.746Z,6.34
2022-12-23T06:24:54.173Z,6.27
2022-12-23T06:27:20.589Z,6.19
2022-12-23T06:29:47.160Z,6.15
2022-12-23T06:32:13.589Z,6.25
2022-12-23T06:34:40.150Z,6.23
2022-12-23T06:37:06.833Z,6.19
2022-12-23T06:39:33.513Z,6.18
2022-12-23T06:41:59.887Z,6.23
2022-12-23T06:44:26.271Z,6.24
2022-12-23T06:46:52.613Z,6.26
2022-12-23T06:49:18.971Z,6.19
2022-12-23T06:51:45.339Z,6.21
2022-12-23T06:54:12.116Z,6.23
2022-12-23T06:56:38.981Z,6.23
2022-12-23T06:59:05.719Z,6.24
2022-12-23T07:01:32.218Z,6.27
2022-12-23T07:03:58.671Z,6.08
2022-12-23T07:06:25.090Z,6.24
2022-12-23T07:08:51.496Z,6.24
2022-12-23T07:11:18.531Z,6.16
2022-12-23T07:13:46.289Z,6.27
2022-12-23T07:16:12.846Z,6.26
2022-12-23T07:18:39.233Z,6.26
2022-12-23T07:21:08.838Z,6.22
2022-12-23T07:23:39.841Z,6.32
2022-12-23T07:26:06.207Z,6.33
2022-12-23T07:28:32.588Z,6.29
2022-12-23T07:30:58.969Z,6.30
2022-12-23T07:33:25.380Z,6.31
2022-12-23T07:35:51.744Z,6.31
2022-12-23T07:38:18.087Z,6.20
2022-12-23T07:40:48.773Z,6.27
2022-12-23T07:43:15.144Z,6.24
2022-12-23T07:45:41.702Z,6.28
2022-12-23T07:48:08.725Z,6.26
2022-12-23T07:50:35.210Z,6.17
2022-12-23T07:53:01.584Z,6.16
2022-12-23T07:55:27.935Z,6.28
2022-12-23T07:57:54.354Z,6.07
2022-12-23T08:00:21.117Z,6.12
2022-12-23T08:02:48.320Z,6.28
2022-12-23T08:05:15.211Z,6.33
2022-12-23T08:07:42.100Z,6.29
2022-12-23T08:10:09.131Z,6.32
2022-12-23T08:12:35.538Z,6.36
2022-12-23T08:15:01.989Z,6.40
2022-12-23T08:17:30.251Z,6.41
2022-12-23T08:19:57.022Z,6.40
2022-12-23T08:22:24.106Z,6.49
2022-12-23T08:24:50.539Z,6.42
2022-12-23T08:27:16.966Z,6.48
2022-12-23T08:29:43.345Z,6.38
2022-12-23T08:32:09.816Z,6.60
2022-12-23T08:34:36.709Z,6.60
2022-12-23T08:37:03.281Z,6.64
2022-12-23T08:39:29.671Z,6.67
2022-12-23T08:41:56.124Z,6.64
2022-12-23T08:44:22.958Z,6.68
2022-12-23T08:46:49.400Z,6.72
2022-12-23T08:49:15.892Z,6.74
2022-12-23T08:51:42.523Z,6.74
2022-12-23T08:54:10.142Z,6.73
2022-12-23T08:56:40.263Z,6.76
2022-12-23T08:59:07.210Z,6.68
2022-12-23T09:01:34.977Z,6.71
2022-12-23T09:04:04.045Z,6.73
2022-12-23T09:06:34.578Z,6.68
2022-12-23T09:09:01.092Z,6.66
2022-12-23T09:11:29.164Z,6.75
2022-12-23T09:13:56.748Z,6.84
2022-12-23T09:16:23.239Z,6.87
2022-12-23T09:18:49.733Z,6.95
2022-12-23T09:21:21.088Z,6.91
2022-12-23T09:23:48.300Z,7.01
2022-12-23T09:26:26.601Z,6.98
2022-12-23T09:28:53.970Z,7.04
2022-12-23T09:31:21.294Z,7.18
2022-12-23T09:33:50.377Z,6.98
2022-12-23T09:36:17.656Z,7.19
2022-12-23T09:38:44.398Z,7.11
2022-12-23T09:41:29.019Z,7.24
2022-12-23T09:44:20.104Z,7.24
2022-12-23T09:46:55.298Z,7.23
2022-12-23T09:49:23.757Z,7.20
2022-12-23T09:51:54.131Z,7.24
2022-12-23T09:54:28.888Z,7.21
2022-12-23T09:57:00.347Z,7.28
2022-12-23T09:59:51.326Z,7.41
2022-12-23T10:02:44.448Z,7.40
2022-12-23T10:05:24.289Z,7.44
2022-12-23T10:07:55.808Z,7.37
2022-12-23T10:10:34.988Z,7.71
2022-12-23T10:13:05.903Z,7.69
2022-12-23T10:15:41.272Z,7.68
2022-12-23T10:18:20.215Z,7.65
2022-12-23T10:21:08.628Z,7.65
2022-12-23T10:23:38.239Z,7.65
2022-12-23T10:26:20.239Z,7.56
2022-12-23T10:28:46.742Z,7.55
2022-12-23T10:34:26.939Z,7.75
2022-12-23T10:37:17.217Z,7.79
2022-12-23T10:39:57.129Z,7.98
2022-12-23T10:42:48.309Z,7.97
2022-12-23T10:46:11.890Z,7.98
2022-12-23T10:49:21.427Z,7.86
2022-12-23T10:51:55.223Z,7.88
2022-12-23T10:54:28.044Z,7.91
2022-12-23T10:56:54.992Z,7.74
2022-12-23T10:59:31.849Z,7.92
2022-12-23T11:02:15.807Z,7.90
2022-12-23T11:04:49.123Z,7.89
2022-12-23T11:07:43.899Z,7.91
2022-12-23T11:10:19.352Z,7.68
2022-12-23T11:12:49.377Z,7.84
2022-12-23T11:15:29.122Z,7.66
2022-12-23T11:18:13.712Z,7.87
2022-12-23T11:20:42.445Z,7.93
2022-12-23T11:23:26.566Z,7.79
2022-12-23T11:26:02.429Z,7.91
2022-12-23T11:28:30.575Z,7.93
2022-12-23T11:31:05.429Z,7.88
2022-12-23T11:34:06.057Z,7.94
2022-12-23T11:36:34.133Z,7.93
2022-12-23T11:39:03.145Z,7.89
2022-12-23T11:41:38.986Z,7.92
2022-12-23T11:44:21.979Z,7.89
2022-12-23T11:46:49.415Z,7.96
2022-12-23T11:49:22.216Z,7.88
2022-12-23T11:52:10.267Z,7.92
2022-12-23T11:54:38.836Z,7.88
2022-12-23T11:57:09.880Z,7.90
2022-12-23T11:59:51.389Z,7.79
2022-12-23T12:02:31.359Z,7.93
2022-12-23T12:05:01.720Z,8.00
2022-12-23T12:07:30.278Z,8.06
2022-12-23T12:10:01.150Z,8.07
2022-12-23T12:12:29.768Z,8.06
2022-12-23T12:15:00.348Z,7.96
2022-12-23T12:17:26.646Z,7.96
2022-12-23T12:19:59.720Z,7.96
2022-12-23T12:22:51.856Z,8.05
2022-12-23T12:25:22.330Z,8.08
2022-12-23T12:28:02.840Z,8.11
2022-12-23T12:30:43.568Z,8.01
2022-12-23T12:33:23.300Z,8.05
2022-12-23T12:36:05.106Z,8.02
2022-12-23T12:38:33.203Z,8.06
2022-12-23T12:41:18.141Z,7.98
2022-12-23T12:43:52.495Z,8.00
2022-12-23T12:46:34.225Z,8.13
2022-12-23T12:49:09.410Z,7.99
2022-12-23T12:52:03.380Z,8.06
2022-12-23T12:54:49.011Z,7.97
2022-12-23T12:57:18.531Z,7.95
2022-12-23T12:59:47.769Z,7.90
2022-12-23T13:02:36.352Z,7.93
2022-12-23T13:05:09.200Z,7.90
2022-12-23T13:07:55.702Z,7.86
2022-12-23T13:10:52.181Z,7.89
2022-12-23T13:13:32.557Z,7.93
2022-12-23T13:16:16.928Z,7.83
2022-12-23T13:18:55.213Z,7.91
2022-12-23T13:21:21.522Z,7.86
2022-12-23T13:24:09.833Z,7.93
2022-12-23T13:26:51.458Z,7.82
2022-12-23T13:29:57.736Z,7.82
2022-12-23T13:32:43.149Z,7.80
2022-12-23T13:35:12.481Z,7.91
2022-12-23T13:37:57.234Z,7.80
2022-12-23T13:40:38.134Z,7.82
2022-12-23T13:43:26.096Z,7.74
2022-12-23T13:45:55.138Z,7.73
2022-12-23T13:48:43.666Z,7.74
2022-12-23T13:51:44.437Z,7.67
2022-12-23T13:54:38.349Z,7.56
2022-12-23T13:57:23.782Z,7.67
2022-12-23T14:00:29.082Z,7.65
2022-12-23T14:03:00.011Z,7.66
2022-12-23T14:05:41.942Z,7.66
2022-12-23T14:08:23.331Z,7.52
2022-12-23T14:11:12.514Z,7.55
2022-12-23T14:13:51.076Z,7.57
2022-12-23T14:16:20.495Z,7.56
2022-12-23T14:19:20.868Z,7.66
2022-12-23T14:21:47.151Z,7.57
2022-12-23T14:25:02.640Z,7.51
2022-12-23T14:27:54.035Z,7.50
2022-12-23T14:30:35.766Z,7.43
2022-12-23T14:33:16.221Z,7.49
2022-12-23T14:35:43.078Z,7.46
2022-12-23T14:38:22.895Z,7.49
2022-12-23T14:40:55.077Z,7.50
2022-12-23T14:43:27.236Z,7.48
2022-12-23T14:46:04.977Z,7.47
2022-12-23T14:48:34.363Z,7.49
2022-12-23T14:51:09.952Z,7.44
2022-12-23T14:53:57.466Z,7.48
2022-12-23T14:56:39.370Z,7.42
2022-12-23T14:59:31.481Z,7.43
2022-12-23T15:02:01.751Z,7.39
2022-12-23T15:04:47.819Z,7.38
2022-12-23T15:07:40.651Z,7.33
2022-12-23T15:10:07.236Z,7.36
2022-12-23T15:12:40.521Z,7.36
2022-12-23T15:15:17.656Z,7.39
2022-12-23T15:17:44.647Z,7.39
2022-12-23T15:20:11.058Z,7.36
2022-12-23T15:22:39.003Z,7.33
2022-12-23T15:25:18.321Z,7.38
2022-12-23T15:27:44.868Z,7.32
2022-12-23T15:30:13.594Z,7.33
2022-12-23T15:32:43.005Z,7.35
2022-12-23T15:35:16.136Z,7.33
2022-12-23T15:37:42.560Z,7.34
2022-12-23T15:40:24.235Z,7.37
2022-12-23T15:42:50.656Z,7.33
2022-12-23T15:45:22.814Z,7.28
2022-12-23T15:47:50.269Z,7.32
2022-12-23T15:50:18.693Z,7.34
2022-12-23T15:52:47.317Z,7.29
2022-12-23T15:55:27.757Z,7.28
2022-12-23T15:57:54.923Z,7.24
2022-12-23T16:00:23.143Z,7.27
2022-12-23T16:03:01.145Z,7.24
2022-12-23T16:05:36.578Z,7.26
2022-12-23T16:08:30.814Z,7.20
2022-12-23T16:11:16.239Z,7.24
2022-12-23T16:14:19.987Z,7.25
2022-12-23T16:16:46.558Z,7.21
2022-12-23T16:19:45.986Z,7.23
2022-12-23T16:22:29.176Z,7.23
2022-12-23T16:25:22.904Z,7.23
2022-12-23T16:27:56.795Z,7.21
2022-12-23T16:30:33.302Z,7.17
2022-12-23T16:33:02.918Z,7.16
2022-12-23T16:35:42.993Z,7.21
2022-12-23T16:38:26.158Z,7.15
2022-12-23T16:40:56.775Z,7.17
2022-12-23T16:43:24.867Z,7.18
2022-12-23T16:45:56.510Z,7.00
2022-12-23T16:48:31.334Z,6.98
2022-12-23T16:50:58.966Z,7.14
2022-12-23T16:53:25.591Z,7.09
2022-12-23T16:55:56.808Z,7.02
2022-12-23T16:58:26.505Z,7.13
2022-12-23T17:00:53.093Z,6.97
2022-12-23T17:03:20.570Z,7.09
2022-12-23T17:05:48.169Z,7.04
2022-12-23T17:08:14.917Z,7.13
2022-12-23T17:10:44.412Z,7.10
2022-12-23T17:13:17.375Z,7.00
2022-12-23T17:15:44.683Z,7.02
2022-12-23T17:18:16.821Z,6.88
2022-12-23T17:20:45.683Z,7.01
2022-12-23T17:23:30.985Z,7.00
2022-12-23T17:25:57.471Z,7.04
2022-12-23T17:28:28.874Z,6.98
2022-12-23T17:30:56.080Z,6.95
2022-12-23T17:33:26.971Z,6.96
2022-12-23T17:35:53.536Z,6.94
2022-12-23T17:38:19.984Z,6.99
2022-12-23T17:40:47.428Z,6.95
2022-12-23T17:43:16.624Z,6.96
2022-12-23T17:45:43.996Z,6.95
2022-12-23T17:48:17.967Z,7.01
2022-12-23T17:50:47.506Z,6.93
2022-12-23T17:53:16.133Z,6.92
2022-12-23T17:55:42.501Z,6.86
2022-12-23T17:58:09.088Z,6.91
2022-12-23T18:00:37.037Z,6.91
2022-12-23T18:03:07.498Z,6.97
2022-12-23T18:05:36.162Z,6.93
2022-12-23T18:08:03.394Z,6.92
2022-12-23T18:10:33.526Z,6.96
2022-12-23T18:13:02.482Z,6.92
2022-12-23T18:15:43.326Z,6.97
2022-12-23T18:18:20.559Z,6.94
2022-12-23T18:20:55.967Z,6.91
2022-12-23T18:23:25.705Z,6.92
2022-12-23T18:25:52.168Z,6.78
2022-12-23T18:28:18.678Z,6.88
2022-12-23T18:30:45.318Z,6.99
2022-12-23T18:33:12.679Z,6.94
2022-12-23T18:35:43.077Z,6.94
2022-12-23T18:38:10.536Z,6.89
2022-12-23T18:40:37.985Z,6.92
2022-12-23T18:43:04.783Z,6.93
2022-12-23T18:45:37.613Z,6.85
2022-12-23T18:48:07.023Z,6.88
2022-12-23T18:50:34.865Z,6.83
2022-12-23T18:53:02.029Z,6.88
2022-12-23T18:55:30.331Z,6.87
2022-12-23T18:57:58.697Z,6.87
2022-12-23T19:00:27.823Z,6.87
2022-12-23T19:02:54.977Z,6.82
2022-12-23T19:05:27.448Z,6.87
2022-12-23T19:07:56.067Z,6.86
2022-12-23T19:10:28.826Z,6.85
2022-12-23T19:12:56.582Z,6.84
2022-12-23T19:15:23.373Z,6.85
2022-12-23T19:17:52.581Z,6.83
2022-12-23T19:20:20.160Z,6.81
2022-12-23T19:22:47.610Z,6.86
2022-12-23T19:25:17.792Z,6.84
2022-12-23T19:27:45.206Z,6.88
2022-12-23T19:30:15.170Z,6.87
2022-12-23T19:32:41.594Z,6.86
2022-12-23T19:35:11.924Z,6.86
2022-12-23T19:37:38.441Z,6.83
2022-12-23T19:40:06.086Z,6.63
2022-12-23T19:42:33.932Z,6.80
2022-12-23T19:45:00.788Z,6.85
2022-12-23T19:47:27.384Z,6.89
2022-12-23T19:49:53.789Z,6.91
2022-12-23T19:52:20.204Z,6.89
2022-12-23T19:54:46.626Z,6.84
2022-12-23T19:57:13.235Z,6.87
2022-12-23T19:59:39.704Z,6.87
2022-12-23T20:02:06.612Z,6.75
2022-12-23T20:04:33.123Z,6.77
2022-12-23T20:06:59.479Z,6.89
2022-12-23T20:09:25.900Z,6.80
2022-12-23T20:11:52.330Z,6.94
2022-12-23T20:14:19.475Z,6.91
2022-12-23T20:16:45.969Z,6.95
2022-12-23T20:19:12.345Z,6.84
2022-12-23T20:21:38.733Z,6.85
2022-12-23T20:24:06.290Z,6.85
2022-12-23T20:26:33.133Z,6.85
2022-12-23T20:28:59.658Z,6.86
2022-12-23T20:31:31.570Z,6.89
2022-12-23T20:33:59.032Z,6.89
2022-12-23T20:36:28.404Z,6.84
2022-12-23T20:38:56.005Z,6.85
2022-12-23T20:41:25.645Z,6.87
2022-12-23T20:44:23.813Z,6.86
2022-12-23T20:46:39.139Z,6.84
2022-12-23T20:49:05.594Z,6.83
2022-12-23T20:51:32.020Z,6.89
2022-12-23T20:53:59.887Z,6.72
2022-12-23T20:56:27.767Z,6.83
2022-12-23T20:58:54.933Z,6.85
2022-12-23T21:01:24.470Z,6.83
2022-12-23T21:03:51.894Z,6.80
2022-12-23T21:06:18.883Z,6.70
2022-12-23T21:08:45.314Z,6.65
2022-12-23T21:11:11.909Z,6.78
2022-12-23T21:13:40.257Z,6.78
2022-12-23T21:16:09.203Z,6.75
2022-12-23T21:18:35.948Z,6.69
2022-12-23T21:21:04.789Z,6.74
2022-12-23T21:23:31.968Z,6.75
2022-12-23T21:26:25.905Z,6.71
2022-12-23T21:28:54.423Z,6.69
2022-12-23T21:31:23.124Z,6.73
2022-12-23T21:33:50.987Z,6.69
2022-12-23T21:36:20.715Z,6.68
2022-12-23T21:38:48.450Z,6.72
2022-12-23T21:41:18.138Z,6.71
2022-12-23T21:43:44.808Z,6.70
2022-12-23T21:46:14.468Z,6.72
2022-12-23T21:48:41.555Z,6.68
2022-12-23T21:51:08.136Z,6.75
2022-12-23T21:53:35.790Z,6.74
2022-12-23T21:56:08.162Z,6.74
2022-12-23T21:58:35.004Z,6.68
2022-12-23T22:01:10.271Z,6.69
2022-12-23T22:03:37.063Z,6.68
2022-12-23T22:06:11.826Z,6.64
2022-12-23T22:08:39.047Z,6.66
2022-12-23T22:11:13.464Z,6.64
2022-12-23T22:13:41.577Z,6.63
2022-12-23T22:16:13.528Z,6.63
2022-12-23T22:18:40.090Z,6.61
2022-12-23T22:21:12.874Z,6.60
2022-12-23T22:23:39.676Z,6.64
2022-12-23T22:26:07.236Z,6.47
2022-12-23T22:28:35.967Z,6.64
2022-12-23T22:31:16.455Z,6.43
2022-12-23T22:33:43.335Z,6.44
2022-12-23T22:36:15.007Z,6.55
2022-12-23T22:38:42.535Z,6.64
2022-12-23T22:41:10.705Z,6.59
2022-12-23T22:43:38.124Z,6.58
2022-12-23T22:46:04.979Z,6.62
2022-12-23T22:48:31.658Z,6.58
2022-12-23T22:51:05.108Z,6.60
2022-12-23T22:53:32.405Z,6.60
2022-12-23T22:55:59.922Z,6.57
2022-12-23T22:58:27.717Z,6.62
2022-12-23T23:00:54.361Z,6.59
2022-12-23T23:03:21.004Z,6.40
2022-12-23T23:06:09.855Z,6.60
2022-12-23T23:08:36.335Z,6.49
2022-12-23T23:11:04.890Z,6.57
2022-12-23T23:13:34.771Z,6.57
2022-12-23T23:16:02.330Z,6.45
2022-12-23T23:18:30.100Z,6.60
2022-12-23T23:20:56.835Z,6.62
2022-12-23T23:23:23.294Z,6.60
2022-12-23T23:25:49.720Z,6.65
2022-12-23T23:28:16.451Z,6.61
2022-12-23T23:30:42.896Z,6.62
2022-12-23T23:33:10.041Z,6.57
2022-12-23T23:35:37.183Z,6.62
2022-12-23T23:38:03.600Z,6.53
2022-12-23T23:40:30.025Z,6.47
2022-12-23T23:42:56.428Z,6.44
2022-12-23T23:45:23.053Z,6.55
2022-12-23T23:47:49.443Z,6.44
2022-12-23T23:50:15.924Z,6.47
2022-12-23T23:52:42.299Z,6.59
2022-12-23T23:55:09.262Z,6.55
2022-12-23T23:57:35.840Z,6.54
